sensor_id;sensor_type;location;lat;lon;timestamp;P1;durP1;ratioP1;P2;durP2;ratioP2
9128;SDS011;4599;50.906;6.786;2024-02-15T00:02:54;2.03;;;1.50;;
9128;SDS011;4599;50.906;6.786;2024-02-15T00:06:55;2.90;;;1.90;;
9128;SDS011;4599;50.906;6.786;2024-02-15T00:10:57;4.57;;;2.03;;
9128;SDS011;4599;50.906;6.786;2024-02-15T00:15:01;3.43;;;1.70;;
9128;SDS011;4599;50.906;6.786;2024-02-15T00:19:03;5.43;;;2.47;;
9128;SDS011;4599;50.906;6.786;2024-02-15T00:23:05;5.03;;;1.90;;
9128;SDS011;4599;50.906;6.786;2024-02-15T00:27:06;5.50;;;1.97;;
9128;SDS011;4599;50.906;6.786;2024-02-15T00:31:10;5.30;;;2.00;;
9128;SDS011;4599;50.906;6.786;2024-02-15T00:35:12;7.77;;;2.33;;
9128;SDS011;4599;50.906;6.786;2024-02-15T00:39:14;4.80;;;2.07;;
9128;SDS011;4599;50.906;6.786;2024-02-15T00:43:15;4.60;;;1.97;;
9128;SDS011;4599;50.906;6.786;2024-02-15T00:47:19;6.90;;;2.50;;
9128;SDS011;4599;50.906;6.786;2024-02-15T00:51:21;4.00;;;2.10;;
9128;SDS011;4599;50.906;6.786;2024-02-15T00:55:23;4.57;;;2.07;;
9128;SDS011;4599;50.906;6.786;2024-02-15T00:59:24;9.60;;;2.17;;
9128;SDS011;4599;50.906;6.786;2024-02-15T01:03:27;5.70;;;1.87;;
9128;SDS011;4599;50.906;6.786;2024-02-15T01:07:29;4.20;;;2.10;;
9128;SDS011;4599;50.906;6.786;2024-02-15T01:11:31;6.30;;;2.07;;
9128;SDS011;4599;50.906;6.786;2024-02-15T01:15:32;3.30;;;1.73;;
9128;SDS011;4599;50.906;6.786;2024-02-15T01:19:36;2.27;;;1.60;;
9128;SDS011;4599;50.906;6.786;2024-02-15T01:23:38;4.30;;;2.03;;
9128;SDS011;4599;50.906;6.786;2024-02-15T01:27:40;1.80;;;1.63;;
9128;SDS011;4599;50.906;6.786;2024-02-15T01:31:42;5.20;;;1.90;;
9128;SDS011;4599;50.906;6.786;2024-02-15T01:35:45;3.70;;;1.80;;
9128;SDS011;4599;50.906;6.786;2024-02-15T01:39:47;7.07;;;2.10;;
9128;SDS011;4599;50.906;6.786;2024-02-15T01:43:49;4.17;;;1.50;;
9128;SDS011;4599;50.906;6.786;2024-02-15T01:47:51;4.30;;;1.60;;
9128;SDS011;4599;50.906;6.786;2024-02-15T01:51:54;2.03;;;1.50;;
9128;SDS011;4599;50.906;6.786;2024-02-15T01:55:57;1.97;;;1.30;;
9128;SDS011;4599;50.906;6.786;2024-02-15T02:00:00;1.50;;;1.30;;
9128;SDS011;4599;50.906;6.786;2024-02-15T02:04:03;2.20;;;1.37;;
9128;SDS011;4599;50.906;6.786;2024-02-15T02:08:06;1.37;;;1.27;;
9128;SDS011;4599;50.906;6.786;2024-02-15T02:12:08;4.33;;;1.70;;
9128;SDS011;4599;50.906;6.786;2024-02-15T02:16:26;3.00;;;1.50;;
9128;SDS011;4599;50.906;6.786;2024-02-15T02:20:28;1.40;;;1.30;;
9128;SDS011;4599;50.906;6.786;2024-02-15T02:24:32;2.37;;;1.27;;
9128;SDS011;4599;50.906;6.786;2024-02-15T02:28:38;2.40;;;1.80;;
9128;SDS011;4599;50.906;6.786;2024-02-15T02:32:40;2.33;;;1.27;;
9128;SDS011;4599;50.906;6.786;2024-02-15T02:36:43;2.20;;;1.30;;
9128;SDS011;4599;50.906;6.786;2024-02-15T02:40:46;2.70;;;1.43;;
9128;SDS011;4599;50.906;6.786;2024-02-15T02:44:51;2.90;;;1.60;;
9128;SDS011;4599;50.906;6.786;2024-02-15T02:48:53;3.70;;;1.33;;
9128;SDS011;4599;50.906;6.786;2024-02-15T02:52:55;2.37;;;1.33;;
9128;SDS011;4599;50.906;6.786;2024-02-15T02:56:57;1.30;;;1.20;;
9128;SDS011;4599;50.906;6.786;2024-02-15T03:01:00;2.37;;;1.40;;
9128;SDS011;4599;50.906;6.786;2024-02-15T03:05:03;3.20;;;1.47;;
9128;SDS011;4599;50.906;6.786;2024-02-15T03:09:05;3.40;;;1.63;;
9128;SDS011;4599;50.906;6.786;2024-02-15T03:13:07;6.47;;;1.30;;
9128;SDS011;4599;50.906;6.786;2024-02-15T03:17:10;2.93;;;1.50;;
9128;SDS011;4599;50.906;6.786;2024-02-15T03:21:12;2.03;;;1.40;;
9128;SDS011;4599;50.906;6.786;2024-02-15T03:25:14;3.83;;;1.60;;
9128;SDS011;4599;50.906;6.786;2024-02-15T03:29:16;3.03;;;1.70;;
9128;SDS011;4599;50.906;6.786;2024-02-15T03:33:19;3.30;;;1.27;;
9128;SDS011;4599;50.906;6.786;2024-02-15T03:37:21;3.60;;;1.40;;
9128;SDS011;4599;50.906;6.786;2024-02-15T03:41:23;2.40;;;1.27;;
9128;SDS011;4599;50.906;6.786;2024-02-15T03:45:28;5.13;;;1.80;;
9128;SDS011;4599;50.906;6.786;2024-02-15T03:49:31;5.73;;;1.50;;
9128;SDS011;4599;50.906;6.786;2024-02-15T03:53:33;2.90;;;1.43;;
9128;SDS011;4599;50.906;6.786;2024-02-15T03:57:35;2.70;;;1.47;;
9128;SDS011;4599;50.906;6.786;2024-02-15T04:01:39;4.20;;;1.50;;
9128;SDS011;4599;50.906;6.786;2024-02-15T04:05:42;5.83;;;1.43;;
9128;SDS011;4599;50.906;6.786;2024-02-15T04:09:44;5.23;;;1.40;;
9128;SDS011;4599;50.906;6.786;2024-02-15T04:13:46;4.70;;;1.50;;
9128;SDS011;4599;50.906;6.786;2024-02-15T04:17:48;3.73;;;1.30;;
9128;SDS011;4599;50.906;6.786;2024-02-15T04:21:51;3.00;;;1.53;;
9128;SDS011;4599;50.906;6.786;2024-02-15T04:25:53;8.63;;;1.63;;
9128;SDS011;4599;50.906;6.786;2024-02-15T04:29:55;7.50;;;2.33;;
9128;SDS011;4599;50.906;6.786;2024-02-15T04:33:57;5.30;;;1.40;;
9128;SDS011;4599;50.906;6.786;2024-02-15T04:38:00;5.73;;;1.60;;
9128;SDS011;4599;50.906;6.786;2024-02-15T04:42:02;5.57;;;1.47;;
9128;SDS011;4599;50.906;6.786;2024-02-15T04:46:04;3.07;;;1.57;;
9128;SDS011;4599;50.906;6.786;2024-02-15T04:50:06;4.27;;;1.93;;
9128;SDS011;4599;50.906;6.786;2024-02-15T04:54:10;3.87;;;1.47;;
9128;SDS011;4599;50.906;6.786;2024-02-15T04:58:12;6.80;;;1.67;;
9128;SDS011;4599;50.906;6.786;2024-02-15T05:02:14;5.90;;;1.80;;
9128;SDS011;4599;50.906;6.786;2024-02-15T05:06:16;5.83;;;1.60;;
9128;SDS011;4599;50.906;6.786;2024-02-15T05:10:21;10.20;;;2.50;;
9128;SDS011;4599;50.906;6.786;2024-02-15T05:14:22;6.73;;;1.63;;
9128;SDS011;4599;50.906;6.786;2024-02-15T05:18:24;5.00;;;1.73;;
9128;SDS011;4599;50.906;6.786;2024-02-15T05:22:26;5.80;;;1.90;;
9128;SDS011;4599;50.906;6.786;2024-02-15T05:26:29;6.20;;;1.83;;
9128;SDS011;4599;50.906;6.786;2024-02-15T05:30:31;5.67;;;1.80;;
9128;SDS011;4599;50.906;6.786;2024-02-15T05:34:34;4.30;;;1.70;;
9128;SDS011;4599;50.906;6.786;2024-02-15T05:38:37;6.20;;;1.93;;
9128;SDS011;4599;50.906;6.786;2024-02-15T05:42:41;7.83;;;1.97;;
9128;SDS011;4599;50.906;6.786;2024-02-15T05:46:43;6.23;;;2.13;;
9128;SDS011;4599;50.906;6.786;2024-02-15T05:50:45;4.73;;;1.70;;
9128;SDS011;4599;50.906;6.786;2024-02-15T05:54:46;5.43;;;1.80;;
9128;SDS011;4599;50.906;6.786;2024-02-15T05:58:50;5.57;;;2.30;;
9128;SDS011;4599;50.906;6.786;2024-02-15T06:02:51;6.17;;;2.20;;
9128;SDS011;4599;50.906;6.786;2024-02-15T06:06:53;5.97;;;2.00;;
9128;SDS011;4599;50.906;6.786;2024-02-15T06:10:55;6.20;;;1.97;;
9128;SDS011;4599;50.906;6.786;2024-02-15T06:14:58;5.23;;;1.90;;
9128;SDS011;4599;50.906;6.786;2024-02-15T06:19:00;6.07;;;1.80;;
9128;SDS011;4599;50.906;6.786;2024-02-15T06:23:02;4.73;;;1.70;;
9128;SDS011;4599;50.906;6.786;2024-02-15T06:27:04;7.20;;;2.40;;
9128;SDS011;4599;50.906;6.786;2024-02-15T06:31:08;6.57;;;2.03;;
9128;SDS011;4599;50.906;6.786;2024-02-15T06:35:11;10.73;;;2.13;;
9128;SDS011;4599;50.906;6.786;2024-02-15T06:39:12;4.83;;;1.90;;
9128;SDS011;4599;50.906;6.786;2024-02-15T06:43:14;6.97;;;1.80;;
9128;SDS011;4599;50.906;6.786;2024-02-15T06:47:17;4.70;;;2.10;;
9128;SDS011;4599;50.906;6.786;2024-02-15T06:51:19;4.80;;;1.70;;
9128;SDS011;4599;50.906;6.786;2024-02-15T06:55:21;3.80;;;1.63;;
9128;SDS011;4599;50.906;6.786;2024-02-15T06:59:23;5.97;;;2.27;;
9128;SDS011;4599;50.906;6.786;2024-02-15T07:03:27;7.77;;;1.90;;
9128;SDS011;4599;50.906;6.786;2024-02-15T07:07:30;7.53;;;1.87;;
9128;SDS011;4599;50.906;6.786;2024-02-15T07:11:31;4.57;;;1.80;;
9128;SDS011;4599;50.906;6.786;2024-02-15T07:15:33;6.07;;;2.30;;
9128;SDS011;4599;50.906;6.786;2024-02-15T07:19:37;5.63;;;1.90;;
9128;SDS011;4599;50.906;6.786;2024-02-15T07:23:39;7.63;;;2.10;;
9128;SDS011;4599;50.906;6.786;2024-02-15T07:27:40;6.53;;;1.93;;
9128;SDS011;4599;50.906;6.786;2024-02-15T07:31:42;5.37;;;2.00;;
9128;SDS011;4599;50.906;6.786;2024-02-15T07:35:45;8.97;;;2.20;;
9128;SDS011;4599;50.906;6.786;2024-02-15T07:39:47;8.13;;;3.37;;
9128;SDS011;4599;50.906;6.786;2024-02-15T07:43:49;8.87;;;2.40;;
9128;SDS011;4599;50.906;6.786;2024-02-15T07:47:51;7.33;;;3.10;;
9128;SDS011;4599;50.906;6.786;2024-02-15T07:51:54;6.17;;;2.67;;
9128;SDS011;4599;50.906;6.786;2024-02-15T07:55:56;7.10;;;1.97;;
9128;SDS011;4599;50.906;6.786;2024-02-15T07:59:57;10.37;;;4.23;;
9128;SDS011;4599;50.906;6.786;2024-02-15T08:03:59;11.17;;;4.57;;
9128;SDS011;4599;50.906;6.786;2024-02-15T08:08:03;6.60;;;2.60;;
9128;SDS011;4599;50.906;6.786;2024-02-15T08:12:05;12.40;;;5.90;;
9128;SDS011;4599;50.906;6.786;2024-02-15T08:16:07;13.10;;;3.80;;
9128;SDS011;4599;50.906;6.786;2024-02-15T08:20:09;8.03;;;2.70;;
9128;SDS011;4599;50.906;6.786;2024-02-15T08:24:13;9.80;;;3.83;;
9128;SDS011;4599;50.906;6.786;2024-02-15T08:28:15;8.43;;;3.23;;
9128;SDS011;4599;50.906;6.786;2024-02-15T08:32:17;8.00;;;2.83;;
9128;SDS011;4599;50.906;6.786;2024-02-15T08:36:18;10.30;;;2.93;;
9128;SDS011;4599;50.906;6.786;2024-02-15T08:40:22;10.83;;;3.53;;
9128;SDS011;4599;50.906;6.786;2024-02-15T08:44:23;14.27;;;6.50;;
9128;SDS011;4599;50.906;6.786;2024-02-15T08:48:25;13.10;;;5.40;;
9128;SDS011;4599;50.906;6.786;2024-02-15T08:52:27;10.97;;;4.97;;
9128;SDS011;4599;50.906;6.786;2024-02-15T08:56:30;7.67;;;4.03;;
9128;SDS011;4599;50.906;6.786;2024-02-15T09:00:32;14.50;;;4.20;;
9128;SDS011;4599;50.906;6.786;2024-02-15T09:04:34;11.27;;;6.27;;
9128;SDS011;4599;50.906;6.786;2024-02-15T09:08:36;9.97;;;4.83;;
9128;SDS011;4599;50.906;6.786;2024-02-15T09:12:40;9.93;;;3.47;;
9128;SDS011;4599;50.906;6.786;2024-02-15T09:16:43;9.67;;;2.93;;
9128;SDS011;4599;50.906;6.786;2024-02-15T09:20:46;11.00;;;3.00;;
9128;SDS011;4599;50.906;6.786;2024-02-15T09:24:48;12.67;;;3.60;;
9128;SDS011;4599;50.906;6.786;2024-02-15T09:28:51;10.53;;;3.30;;
9128;SDS011;4599;50.906;6.786;2024-02-15T09:32:53;4.97;;;3.27;;
9128;SDS011;4599;50.906;6.786;2024-02-15T09:36:55;10.20;;;4.33;;
9128;SDS011;4599;50.906;6.786;2024-02-15T09:40:57;6.50;;;2.50;;
9128;SDS011;4599;50.906;6.786;2024-02-15T09:45:00;8.40;;;2.80;;
9128;SDS011;4599;50.906;6.786;2024-02-15T09:49:03;9.30;;;3.23;;
9128;SDS011;4599;50.906;6.786;2024-02-15T09:53:05;4.30;;;2.23;;
9128;SDS011;4599;50.906;6.786;2024-02-15T09:57:07;6.20;;;2.50;;
9128;SDS011;4599;50.906;6.786;2024-02-15T10:01:11;6.13;;;2.33;;
9128;SDS011;4599;50.906;6.786;2024-02-15T10:05:14;4.30;;;1.90;;
9128;SDS011;4599;50.906;6.786;2024-02-15T10:09:25;4.53;;;2.20;;
9128;SDS011;4599;50.906;6.786;2024-02-15T10:13:28;5.27;;;1.90;;
9128;SDS011;4599;50.906;6.786;2024-02-15T10:17:31;3.93;;;1.53;;
9128;SDS011;4599;50.906;6.786;2024-02-15T10:21:33;5.43;;;1.63;;
9128;SDS011;4599;50.906;6.786;2024-02-15T10:25:35;6.00;;;3.70;;
9128;SDS011;4599;50.906;6.786;2024-02-15T10:29:37;4.13;;;1.60;;
9128;SDS011;4599;50.906;6.786;2024-02-15T10:33:40;10.60;;;3.23;;
9128;SDS011;4599;50.906;6.786;2024-02-15T10:37:42;7.80;;;2.40;;
9128;SDS011;4599;50.906;6.786;2024-02-15T10:41:44;4.07;;;2.10;;
9128;SDS011;4599;50.906;6.786;2024-02-15T10:45:47;7.07;;;2.23;;
9128;SDS011;4599;50.906;6.786;2024-02-15T10:49:52;4.93;;;1.60;;
9128;SDS011;4599;50.906;6.786;2024-02-15T10:53:56;8.37;;;1.87;;
9128;SDS011;4599;50.906;6.786;2024-02-15T10:58:03;5.77;;;1.80;;
9128;SDS011;4599;50.906;6.786;2024-02-15T11:02:19;3.13;;;1.63;;
9128;SDS011;4599;50.906;6.786;2024-02-15T11:06:29;6.43;;;2.10;;
9128;SDS011;4599;50.906;6.786;2024-02-15T11:10:35;4.70;;;1.50;;
9128;SDS011;4599;50.906;6.786;2024-02-15T11:14:37;2.93;;;1.40;;
9128;SDS011;4599;50.906;6.786;2024-02-15T11:18:42;4.63;;;1.87;;
9128;SDS011;4599;50.906;6.786;2024-02-15T11:22:47;5.37;;;1.67;;
9128;SDS011;4599;50.906;6.786;2024-02-15T11:26:57;5.93;;;1.70;;
9128;SDS011;4599;50.906;6.786;2024-02-15T11:31:00;4.33;;;1.30;;
9128;SDS011;4599;50.906;6.786;2024-02-15T11:35:02;4.23;;;1.40;;
9128;SDS011;4599;50.906;6.786;2024-02-15T11:39:17;5.03;;;1.47;;
9128;SDS011;4599;50.906;6.786;2024-02-15T11:43:47;3.33;;;1.40;;
9128;SDS011;4599;50.906;6.786;2024-02-15T11:47:52;4.30;;;1.50;;
9128;SDS011;4599;50.906;6.786;2024-02-15T11:51:55;3.33;;;1.37;;
9128;SDS011;4599;50.906;6.786;2024-02-15T11:56:01;2.47;;;1.13;;
9128;SDS011;4599;50.906;6.786;2024-02-15T12:00:03;3.63;;;1.23;;
9128;SDS011;4599;50.906;6.786;2024-02-15T12:04:06;2.30;;;1.10;;
9128;SDS011;4599;50.906;6.786;2024-02-15T12:08:10;4.73;;;1.50;;
9128;SDS011;4599;50.906;6.786;2024-02-15T12:12:13;4.77;;;1.60;;
9128;SDS011;4599;50.906;6.786;2024-02-15T12:16:15;3.93;;;1.30;;
9128;SDS011;4599;50.906;6.786;2024-02-15T12:20:17;4.60;;;1.43;;
9128;SDS011;4599;50.906;6.786;2024-02-15T12:24:19;2.53;;;1.13;;
9128;SDS011;4599;50.906;6.786;2024-02-15T12:28:22;4.37;;;1.40;;
9128;SDS011;4599;50.906;6.786;2024-02-15T12:32:24;3.53;;;1.40;;
9128;SDS011;4599;50.906;6.786;2024-02-15T12:36:27;3.43;;;1.30;;
9128;SDS011;4599;50.906;6.786;2024-02-15T12:40:30;4.03;;;1.37;;
9128;SDS011;4599;50.906;6.786;2024-02-15T12:44:34;3.67;;;1.23;;
9128;SDS011;4599;50.906;6.786;2024-02-15T12:48:35;5.17;;;1.23;;
9128;SDS011;4599;50.906;6.786;2024-02-15T12:52:38;3.23;;;1.33;;
9128;SDS011;4599;50.906;6.786;2024-02-15T12:56:40;3.70;;;1.50;;
9128;SDS011;4599;50.906;6.786;2024-02-15T13:00:44;4.93;;;1.20;;
9128;SDS011;4599;50.906;6.786;2024-02-15T13:04:46;4.13;;;1.20;;
9128;SDS011;4599;50.906;6.786;2024-02-15T13:08:48;7.63;;;1.23;;
9128;SDS011;4599;50.906;6.786;2024-02-15T13:12:51;2.90;;;1.10;;
9128;SDS011;4599;50.906;6.786;2024-02-15T13:16:55;2.57;;;1.17;;
9128;SDS011;4599;50.906;6.786;2024-02-15T13:20:57;5.47;;;1.30;;
9128;SDS011;4599;50.906;6.786;2024-02-15T13:25:02;2.10;;;1.10;;
9128;SDS011;4599;50.906;6.786;2024-02-15T13:29:04;3.53;;;1.47;;
9128;SDS011;4599;50.906;6.786;2024-02-15T13:33:07;3.60;;;1.33;;
9128;SDS011;4599;50.906;6.786;2024-02-15T13:37:09;3.30;;;1.40;;
9128;SDS011;4599;50.906;6.786;2024-02-15T13:41:10;2.93;;;1.20;;
9128;SDS011;4599;50.906;6.786;2024-02-15T13:45:12;4.07;;;1.10;;
9128;SDS011;4599;50.906;6.786;2024-02-15T13:49:16;4.13;;;1.67;;
9128;SDS011;4599;50.906;6.786;2024-02-15T13:53:30;5.70;;;1.63;;
9128;SDS011;4599;50.906;6.786;2024-02-15T13:57:32;2.90;;;1.43;;
9128;SDS011;4599;50.906;6.786;2024-02-15T14:01:34;1.97;;;1.17;;
9128;SDS011;4599;50.906;6.786;2024-02-15T14:05:37;4.70;;;1.40;;
9128;SDS011;4599;50.906;6.786;2024-02-15T14:09:39;3.70;;;1.30;;
9128;SDS011;4599;50.906;6.786;2024-02-15T14:13:41;4.40;;;1.30;;
9128;SDS011;4599;50.906;6.786;2024-02-15T14:17:42;3.07;;;0.93;;
9128;SDS011;4599;50.906;6.786;2024-02-15T14:21:46;1.63;;;0.93;;
9128;SDS011;4599;50.906;6.786;2024-02-15T14:25:48;2.30;;;1.00;;
9128;SDS011;4599;50.906;6.786;2024-02-15T14:29:49;3.20;;;1.30;;
9128;SDS011;4599;50.906;6.786;2024-02-15T14:33:51;2.50;;;1.10;;
9128;SDS011;4599;50.906;6.786;2024-02-15T14:37:54;4.03;;;1.10;;
9128;SDS011;4599;50.906;6.786;2024-02-15T14:41:56;1.83;;;1.13;;
9128;SDS011;4599;50.906;6.786;2024-02-15T14:45:58;5.13;;;1.30;;
9128;SDS011;4599;50.906;6.786;2024-02-15T14:50:00;1.37;;;0.90;;
9128;SDS011;4599;50.906;6.786;2024-02-15T14:54:03;4.53;;;1.37;;
9128;SDS011;4599;50.906;6.786;2024-02-15T14:58:05;4.17;;;1.10;;
9128;SDS011;4599;50.906;6.786;2024-02-15T15:02:12;4.83;;;1.27;;
9128;SDS011;4599;50.906;6.786;2024-02-15T15:06:14;1.80;;;1.30;;
9128;SDS011;4599;50.906;6.786;2024-02-15T15:10:17;2.40;;;1.10;;
9128;SDS011;4599;50.906;6.786;2024-02-15T15:14:19;3.70;;;1.10;;
9128;SDS011;4599;50.906;6.786;2024-02-15T15:18:21;3.33;;;1.40;;
9128;SDS011;4599;50.906;6.786;2024-02-15T15:22:23;5.03;;;1.47;;
9128;SDS011;4599;50.906;6.786;2024-02-15T15:26:30;4.73;;;1.47;;
9128;SDS011;4599;50.906;6.786;2024-02-15T15:30:33;2.43;;;1.20;;
9128;SDS011;4599;50.906;6.786;2024-02-15T15:34:36;5.27;;;1.43;;
9128;SDS011;4599;50.906;6.786;2024-02-15T15:38:38;3.27;;;1.10;;
9128;SDS011;4599;50.906;6.786;2024-02-15T15:42:41;4.07;;;1.00;;
9128;SDS011;4599;50.906;6.786;2024-02-15T15:46:43;3.37;;;1.20;;
9128;SDS011;4599;50.906;6.786;2024-02-15T15:50:45;3.93;;;1.50;;
9128;SDS011;4599;50.906;6.786;2024-02-15T15:54:47;4.83;;;1.50;;
9128;SDS011;4599;50.906;6.786;2024-02-15T15:58:50;4.63;;;1.60;;
9128;SDS011;4599;50.906;6.786;2024-02-15T16:02:55;6.97;;;1.47;;
9128;SDS011;4599;50.906;6.786;2024-02-15T16:07:01;4.50;;;1.37;;
9128;SDS011;4599;50.906;6.786;2024-02-15T16:11:03;2.50;;;1.20;;
9128;SDS011;4599;50.906;6.786;2024-02-15T16:15:08;2.60;;;1.50;;
9128;SDS011;4599;50.906;6.786;2024-02-15T16:19:11;7.27;;;1.50;;
9128;SDS011;4599;50.906;6.786;2024-02-15T16:23:13;5.47;;;1.50;;
9128;SDS011;4599;50.906;6.786;2024-02-15T16:27:14;2.40;;;1.40;;
9128;SDS011;4599;50.906;6.786;2024-02-15T16:31:17;5.13;;;1.70;;
9128;SDS011;4599;50.906;6.786;2024-02-15T16:35:19;4.93;;;1.50;;
9128;SDS011;4599;50.906;6.786;2024-02-15T16:39:21;6.63;;;1.90;;
9128;SDS011;4599;50.906;6.786;2024-02-15T16:43:23;7.20;;;1.80;;
9128;SDS011;4599;50.906;6.786;2024-02-15T16:47:26;3.27;;;1.70;;
9128;SDS011;4599;50.906;6.786;2024-02-15T16:51:28;4.27;;;1.43;;
9128;SDS011;4599;50.906;6.786;2024-02-15T16:55:30;2.20;;;1.30;;
9128;SDS011;4599;50.906;6.786;2024-02-15T16:59:31;3.80;;;1.60;;
9128;SDS011;4599;50.906;6.786;2024-02-15T17:03:35;5.93;;;1.40;;
9128;SDS011;4599;50.906;6.786;2024-02-15T17:07:38;4.67;;;1.70;;
9128;SDS011;4599;50.906;6.786;2024-02-15T17:11:40;3.60;;;1.60;;
9128;SDS011;4599;50.906;6.786;2024-02-15T17:15:42;5.00;;;1.90;;
9128;SDS011;4599;50.906;6.786;2024-02-15T17:19:45;5.47;;;2.00;;
9128;SDS011;4599;50.906;6.786;2024-02-15T17:23:47;3.23;;;1.67;;
9128;SDS011;4599;50.906;6.786;2024-02-15T17:27:48;5.67;;;1.67;;
9128;SDS011;4599;50.906;6.786;2024-02-15T17:31:50;4.27;;;1.73;;
9128;SDS011;4599;50.906;6.786;2024-02-15T17:35:53;4.63;;;1.43;;
9128;SDS011;4599;50.906;6.786;2024-02-15T17:39:55;2.90;;;1.57;;
9128;SDS011;4599;50.906;6.786;2024-02-15T17:43:57;9.70;;;1.93;;
9128;SDS011;4599;50.906;6.786;2024-02-15T17:47:58;7.67;;;1.43;;
9128;SDS011;4599;50.906;6.786;2024-02-15T17:52:02;2.77;;;1.50;;
9128;SDS011;4599;50.906;6.786;2024-02-15T17:56:04;3.37;;;1.40;;
9128;SDS011;4599;50.906;6.786;2024-02-15T18:00:08;3.67;;;1.43;;
9128;SDS011;4599;50.906;6.786;2024-02-15T18:04:11;2.23;;;1.43;;
9128;SDS011;4599;50.906;6.786;2024-02-15T18:08:14;3.23;;;1.40;;
9128;SDS011;4599;50.906;6.786;2024-02-15T18:12:17;7.17;;;1.43;;
9128;SDS011;4599;50.906;6.786;2024-02-15T18:16:19;4.00;;;1.57;;
9128;SDS011;4599;50.906;6.786;2024-02-15T18:20:21;2.83;;;1.53;;
9128;SDS011;4599;50.906;6.786;2024-02-15T18:24:25;4.03;;;1.50;;
9128;SDS011;4599;50.906;6.786;2024-02-15T18:28:26;3.37;;;1.40;;
9128;SDS011;4599;50.906;6.786;2024-02-15T18:32:30;4.13;;;1.47;;
9128;SDS011;4599;50.906;6.786;2024-02-15T18:36:31;4.90;;;1.80;;
9128;SDS011;4599;50.906;6.786;2024-02-15T18:40:35;3.80;;;1.43;;
9128;SDS011;4599;50.906;6.786;2024-02-15T18:44:37;5.50;;;1.50;;
9128;SDS011;4599;50.906;6.786;2024-02-15T18:48:39;3.87;;;1.70;;
9128;SDS011;4599;50.906;6.786;2024-02-15T18:52:42;4.30;;;1.50;;
9128;SDS011;4599;50.906;6.786;2024-02-15T18:56:48;3.63;;;1.93;;
9128;SDS011;4599;50.906;6.786;2024-02-15T19:00:50;4.70;;;1.83;;
9128;SDS011;4599;50.906;6.786;2024-02-15T19:04:59;2.87;;;1.70;;
9128;SDS011;4599;50.906;6.786;2024-02-15T19:09:01;5.40;;;1.87;;
9128;SDS011;4599;50.906;6.786;2024-02-15T19:13:04;2.73;;;1.60;;
9128;SDS011;4599;50.906;6.786;2024-02-15T19:17:07;4.23;;;1.53;;
9128;SDS011;4599;50.906;6.786;2024-02-15T19:21:08;7.37;;;2.20;;
9128;SDS011;4599;50.906;6.786;2024-02-15T19:25:11;4.40;;;1.67;;
9128;SDS011;4599;50.906;6.786;2024-02-15T19:29:15;4.33;;;1.60;;
9128;SDS011;4599;50.906;6.786;2024-02-15T19:33:16;2.87;;;1.63;;
9128;SDS011;4599;50.906;6.786;2024-02-15T19:37:18;3.73;;;1.90;;
9128;SDS011;4599;50.906;6.786;2024-02-15T19:41:20;2.23;;;1.53;;
9128;SDS011;4599;50.906;6.786;2024-02-15T19:45:23;3.57;;;1.90;;
9128;SDS011;4599;50.906;6.786;2024-02-15T19:49:25;2.57;;;1.60;;
9128;SDS011;4599;50.906;6.786;2024-02-15T19:53:27;3.97;;;1.50;;
9128;SDS011;4599;50.906;6.786;2024-02-15T19:57:29;2.63;;;1.60;;
9128;SDS011;4599;50.906;6.786;2024-02-15T20:01:32;3.27;;;1.70;;
9128;SDS011;4599;50.906;6.786;2024-02-15T20:05:34;4.80;;;1.90;;
9128;SDS011;4599;50.906;6.786;2024-02-15T20:09:36;5.83;;;1.90;;
9128;SDS011;4599;50.906;6.786;2024-02-15T20:13:48;4.00;;;1.90;;
9128;SDS011;4599;50.906;6.786;2024-02-15T20:17:51;9.23;;;1.90;;
9128;SDS011;4599;50.906;6.786;2024-02-15T20:21:53;2.73;;;1.70;;
9128;SDS011;4599;50.906;6.786;2024-02-15T20:25:55;6.67;;;2.50;;
9128;SDS011;4599;50.906;6.786;2024-02-15T20:29:56;3.67;;;1.87;;
9128;SDS011;4599;50.906;6.786;2024-02-15T20:34:00;5.17;;;1.60;;
9128;SDS011;4599;50.906;6.786;2024-02-15T20:38:02;2.93;;;1.53;;
9128;SDS011;4599;50.906;6.786;2024-02-15T20:42:05;9.43;;;1.93;;
9128;SDS011;4599;50.906;6.786;2024-02-15T20:46:08;3.37;;;1.70;;
9128;SDS011;4599;50.906;6.786;2024-02-15T20:50:13;4.23;;;1.93;;
9128;SDS011;4599;50.906;6.786;2024-02-15T20:54:15;2.80;;;1.70;;
9128;SDS011;4599;50.906;6.786;2024-02-15T20:58:16;2.40;;;1.40;;
9128;SDS011;4599;50.906;6.786;2024-02-15T21:02:18;3.73;;;1.80;;
9128;SDS011;4599;50.906;6.786;2024-02-15T21:06:21;6.73;;;1.83;;
9128;SDS011;4599;50.906;6.786;2024-02-15T21:10:24;4.70;;;1.80;;
9128;SDS011;4599;50.906;6.786;2024-02-15T21:14:25;3.47;;;1.60;;
9128;SDS011;4599;50.906;6.786;2024-02-15T21:18:27;3.00;;;1.67;;
9128;SDS011;4599;50.906;6.786;2024-02-15T21:22:32;6.77;;;2.10;;
9128;SDS011;4599;50.906;6.786;2024-02-15T21:26:34;4.87;;;1.60;;
9128;SDS011;4599;50.906;6.786;2024-02-15T21:30:35;4.33;;;2.07;;
9128;SDS011;4599;50.906;6.786;2024-02-15T21:34:37;4.43;;;1.80;;
9128;SDS011;4599;50.906;6.786;2024-02-15T21:38:42;5.20;;;1.90;;
9128;SDS011;4599;50.906;6.786;2024-02-15T21:42:44;2.40;;;1.60;;
9128;SDS011;4599;50.906;6.786;2024-02-15T21:46:46;4.43;;;2.07;;
9128;SDS011;4599;50.906;6.786;2024-02-15T21:50:48;5.10;;;2.17;;
9128;SDS011;4599;50.906;6.786;2024-02-15T21:54:51;6.57;;;2.00;;
9128;SDS011;4599;50.906;6.786;2024-02-15T21:58:53;5.83;;;1.87;;
9128;SDS011;4599;50.906;6.786;2024-02-15T22:02:55;7.30;;;2.40;;
9128;SDS011;4599;50.906;6.786;2024-02-15T22:06:58;7.30;;;2.50;;
9128;SDS011;4599;50.906;6.786;2024-02-15T22:11:01;5.37;;;1.90;;
9128;SDS011;4599;50.906;6.786;2024-02-15T22:15:03;4.13;;;1.80;;
9128;SDS011;4599;50.906;6.786;2024-02-15T22:19:06;4.10;;;1.80;;
9128;SDS011;4599;50.906;6.786;2024-02-15T22:23:09;8.03;;;1.80;;
9128;SDS011;4599;50.906;6.786;2024-02-15T22:27:12;4.43;;;1.70;;
9128;SDS011;4599;50.906;6.786;2024-02-15T22:31:17;4.40;;;1.63;;
9128;SDS011;4599;50.906;6.786;2024-02-15T22:35:19;4.97;;;2.10;;
9128;SDS011;4599;50.906;6.786;2024-02-15T22:39:21;7.57;;;1.67;;
9128;SDS011;4599;50.906;6.786;2024-02-15T22:43:24;5.00;;;1.87;;
9128;SDS011;4599;50.906;6.786;2024-02-15T22:47:27;3.53;;;1.50;;
9128;SDS011;4599;50.906;6.786;2024-02-15T22:51:29;3.87;;;1.73;;
9128;SDS011;4599;50.906;6.786;2024-02-15T22:55:31;2.57;;;1.50;;
9128;SDS011;4599;50.906;6.786;2024-02-15T22:59:34;4.17;;;1.70;;
9128;SDS011;4599;50.906;6.786;2024-02-15T23:03:35;3.70;;;1.50;;
9128;SDS011;4599;50.906;6.786;2024-02-15T23:07:38;5.67;;;1.63;;
9128;SDS011;4599;50.906;6.786;2024-02-15T23:11:40;3.10;;;1.50;;
9128;SDS011;4599;50.906;6.786;2024-02-15T23:15:43;3.00;;;1.57;;
9128;SDS011;4599;50.906;6.786;2024-02-15T23:19:44;3.43;;;1.77;;
9128;SDS011;4599;50.906;6.786;2024-02-15T23:23:46;2.97;;;1.60;;
9128;SDS011;4599;50.906;6.786;2024-02-15T23:27:48;5.03;;;1.73;;
9128;SDS011;4599;50.906;6.786;2024-02-15T23:31:51;7.20;;;1.70;;
9128;SDS011;4599;50.906;6.786;2024-02-15T23:35:53;2.73;;;1.70;;
9128;SDS011;4599;50.906;6.786;2024-02-15T23:39:54;3.53;;;1.87;;
9128;SDS011;4599;50.906;6.786;2024-02-15T23:43:56;4.90;;;1.90;;
9128;SDS011;4599;50.906;6.786;2024-02-15T23:47:59;5.80;;;1.70;;
9128;SDS011;4599;50.906;6.786;2024-02-15T23:52:01;3.63;;;1.87;;
9128;SDS011;4599;50.906;6.786;2024-02-15T23:56:03;4.23;;;1.70;;
